createdAt,value
2023-05-14T00:01:10.761Z,100343.22
2023-05-14T00:06:12.291Z,100339.06
2023-05-14T00:11:13.803Z,100342.31
2023-05-14T00:16:16.016Z,100320.53
2023-05-14T00:21:17.592Z,100325.66
2023-05-14T00:26:20.225Z,100317.56
2023-05-14T00:31:22.124Z,100321.03
2023-05-14T00:36:23.726Z,100314.75
2023-05-14T00:41:25.511Z,100315.50
2023-05-14T00:46:27.643Z,100307.75
2023-05-14T00:51:29.535Z,100310.97
2023-05-14T00:56:31.700Z,100300.63
2023-05-14T01:01:33.565Z,100288.59
2023-05-14T01:06:53.796Z,100303.50
2023-05-14T01:12:05.905Z,100306.44
2023-05-14T01:17:10.728Z,100312.78
2023-05-14T01:22:12.720Z,100291.63
2023-05-14T01:27:27.800Z,100299.00
2023-05-14T01:32:30.965Z,100308.34
2023-05-14T01:37:32.923Z,100301.38
2023-05-14T01:42:34.894Z,100296.94
2023-05-14T01:47:36.596Z,100293.38
2023-05-14T01:52:38.178Z,100298.25
2023-05-14T01:57:39.721Z,100300.38
2023-05-14T02:02:41.406Z,100305.56
2023-05-14T02:07:45.825Z,100306.09
2023-05-14T02:12:47.316Z,100300.44
2023-05-14T02:17:48.847Z,100294.09
2023-05-14T02:22:50.479Z,100297.22
2023-05-14T02:27:52.022Z,100301.16
2023-05-14T02:32:53.616Z,100301.09
2023-05-14T02:37:56.215Z,100294.03
2023-05-14T02:42:57.871Z,100293.41
2023-05-14T02:47:59.441Z,100300.41
2023-05-14T02:53:01.782Z,100299.56
2023-05-14T02:58:03.476Z,100308.53
2023-05-14T03:03:05.088Z,100302.16
2023-05-14T03:08:07.397Z,100297.66
2023-05-14T03:13:08.990Z,100298.31
2023-05-14T03:18:10.641Z,100295.81
2023-05-14T03:23:12.547Z,100293.78
2023-05-14T03:28:14.134Z,100286.47
2023-05-14T03:33:15.781Z,100287.59
2023-05-14T03:38:17.549Z,100293.28
2023-05-14T03:43:21.566Z,100297.31
2023-05-14T03:48:24.029Z,100297.84
2023-05-14T03:53:25.619Z,100295.88
2023-05-14T03:58:27.124Z,100280.47
2023-05-14T04:03:31.316Z,100294.25
2023-05-14T04:08:33.131Z,100296.66
2023-05-14T04:13:35.296Z,100290.81
2023-05-14T04:18:37.007Z,100293.34
2023-05-14T04:23:38.621Z,100300.94
2023-05-14T04:28:40.535Z,100303.88
2023-05-14T04:33:42.265Z,100313.78
2023-05-14T04:38:43.761Z,100317.06
2023-05-14T04:43:47.241Z,100308.66
2023-05-14T04:48:49.189Z,100306.31
2023-05-14T04:53:50.731Z,100309.44
2023-05-14T04:58:52.313Z,100305.34
2023-05-14T05:03:53.949Z,100316.78
2023-05-14T05:08:56.148Z,100315.63
2023-05-14T05:13:57.673Z,100308.28
2023-05-14T05:18:59.343Z,100303.56
2023-05-14T05:24:00.932Z,100305.00
2023-05-14T05:29:04.110Z,100303.16
2023-05-14T05:34:05.985Z,100294.41
2023-05-14T05:39:07.576Z,100305.38
2023-05-14T05:44:09.356Z,100313.03
2023-05-14T05:49:10.960Z,100311.38
2023-05-14T05:54:12.456Z,100305.91
2023-05-14T05:59:14.031Z,100308.16
2023-05-14T06:04:15.624Z,100306.72
2023-05-14T06:09:17.155Z,100300.50
2023-05-14T06:14:18.704Z,100303.72
2023-05-14T06:19:20.346Z,100302.50
2023-05-14T06:24:21.920Z,100300.13
2023-05-14T06:29:23.479Z,100292.66
2023-05-14T06:34:27.639Z,100286.06
2023-05-14T06:39:29.379Z,100297.13
2023-05-14T06:44:31.642Z,100273.56
2023-05-14T06:49:33.254Z,100279.25
2023-05-14T06:54:34.808Z,100281.19
2023-05-14T06:59:36.386Z,100275.00
2023-05-14T07:04:37.977Z,100275.59
2023-05-14T07:09:39.576Z,100281.56
2023-05-14T07:14:41.111Z,100272.19
2023-05-14T07:19:42.648Z,100272.97
2023-05-14T07:24:44.247Z,100252.19
2023-05-14T07:29:45.829Z,100256.25
2023-05-14T07:34:47.408Z,100246.94
2023-05-14T07:39:51.373Z,100240.88
2023-05-14T07:44:52.919Z,100236.78
2023-05-14T07:49:55.595Z,100218.88
2023-05-14T07:54:57.186Z,100224.25
2023-05-14T07:59:58.814Z,100234.59
2023-05-14T08:05:00.551Z,100230.91
2023-05-14T08:10:02.356Z,100217.13
2023-05-14T08:15:04.455Z,100222.97
2023-05-14T08:20:06.915Z,100225.34
2023-05-14T08:25:08.665Z,100209.41
2023-05-14T08:30:10.651Z,100210.63
2023-05-14T08:35:12.283Z,100199.94
2023-05-14T08:40:13.988Z,100207.22
2023-05-14T08:45:20.646Z,100208.94
2023-05-14T08:50:23.527Z,100199.91
2023-05-14T08:55:26.730Z,100187.50
2023-05-14T09:00:28.431Z,100183.09
2023-05-14T09:05:30.055Z,100180.88
2023-05-14T09:10:32.497Z,100169.03
2023-05-14T09:15:36.344Z,100151.59
2023-05-14T09:20:38.645Z,100153.78
2023-05-14T09:25:40.287Z,100143.81
2023-05-14T09:30:41.830Z,100157.97
2023-05-14T09:35:43.506Z,100143.81
2023-05-14T09:40:46.436Z,100139.63
2023-05-14T09:45:50.102Z,100132.34
2023-05-14T09:50:52.289Z,100139.78
2023-05-14T09:55:53.819Z,100148.28
2023-05-14T10:00:57.779Z,100142.72
2023-05-14T10:06:06.437Z,100115.97
2023-05-14T10:11:13.651Z,100127.41
2023-05-14T10:16:28.584Z,100113.75
2023-05-14T10:21:32.125Z,100123.22
2023-05-14T10:26:39.113Z,100123.78
2023-05-14T10:31:54.069Z,100114.41
2023-05-14T10:36:59.768Z,100118.91
2023-05-14T10:42:01.311Z,100094.25
2023-05-14T10:47:03.384Z,100088.56
2023-05-14T10:52:08.954Z,100088.47
2023-05-14T10:57:11.712Z,100089.81
2023-05-14T11:02:23.197Z,100091.22
2023-05-14T11:07:29.611Z,100095.88
2023-05-14T11:12:33.669Z,100098.16
2023-05-14T11:17:36.660Z,100086.59
2023-05-14T11:22:40.047Z,100090.44
2023-05-14T11:27:43.269Z,100088.63
2023-05-14T11:32:49.328Z,100097.41
2023-05-14T11:37:54.986Z,100083.34
2023-05-14T11:42:56.645Z,100091.41
2023-05-14T11:48:00.431Z,100086.72
2023-05-14T11:53:02.057Z,100080.34
2023-05-14T11:58:03.704Z,100070.94
2023-05-14T12:03:05.700Z,100049.06
2023-05-14T12:08:31.750Z,100064.25
2023-05-14T12:13:33.445Z,100063.34
2023-05-14T12:18:35.724Z,100059.47
2023-05-14T12:23:38.823Z,100060.25
2023-05-14T12:28:43.466Z,100051.47
2023-05-14T12:33:45.787Z,100047.56
2023-05-14T12:38:47.432Z,100046.53
2023-05-14T12:43:49.719Z,100051.50
2023-05-14T12:48:53.203Z,100044.44
2023-05-14T12:53:55.084Z,100035.06
2023-05-14T12:58:56.742Z,100025.50
2023-05-14T13:03:59.631Z,100021.09
2023-05-14T13:09:02.429Z,100014.06
2023-05-14T13:14:04.010Z,100006.25
2023-05-14T13:19:05.663Z,100005.28
2023-05-14T13:24:07.529Z,99995.91
2023-05-14T13:29:11.464Z,100009.38
2023-05-14T13:34:13.197Z,99998.03
2023-05-14T13:39:14.833Z,99990.50
2023-05-14T13:44:16.834Z,99984.00
2023-05-14T13:49:18.787Z,99964.38
2023-05-14T13:54:20.351Z,99959.41
2023-05-14T13:59:22.042Z,99960.59
2023-05-14T14:04:25.654Z,99945.81
2023-05-14T14:09:27.171Z,99960.22
2023-05-14T14:14:28.704Z,99960.00
2023-05-14T14:19:30.228Z,99939.44
2023-05-14T14:24:31.768Z,99926.09
2023-05-14T14:29:34.396Z,99939.97
2023-05-14T14:34:36.147Z,99937.84
2023-05-14T14:39:37.845Z,99930.53
2023-05-14T14:44:39.381Z,99918.88
2023-05-14T14:49:41.017Z,99910.69
2023-05-14T14:54:42.555Z,99919.03
2023-05-14T14:59:44.309Z,99912.28
2023-05-14T15:04:45.976Z,99912.03
2023-05-14T15:09:47.604Z,99927.03
2023-05-14T15:14:49.167Z,99926.09
2023-05-14T15:19:50.730Z,99940.28
2023-05-14T15:24:52.338Z,99937.31
2023-05-14T15:29:53.876Z,99940.81
2023-05-14T15:34:55.648Z,99942.13
2023-05-14T15:39:57.173Z,99937.19
2023-05-14T15:44:58.723Z,99909.00
2023-05-14T15:50:00.690Z,99912.22
2023-05-14T15:55:02.604Z,99899.66
2023-05-14T16:00:10.399Z,99901.56
2023-05-14T16:05:13.689Z,99887.25
2023-05-14T16:10:15.648Z,99891.13
2023-05-14T16:15:17.279Z,99899.44
2023-05-14T16:20:18.868Z,99912.75
2023-05-14T16:25:20.456Z,99915.53
2023-05-14T16:30:22.167Z,99910.38
2023-05-14T16:35:23.792Z,99905.41
2023-05-14T16:40:25.747Z,99918.22
2023-05-14T16:45:27.496Z,99908.97
2023-05-14T16:50:29.141Z,99920.47
2023-05-14T16:55:30.816Z,99920.19
2023-05-14T17:00:32.402Z,99920.41
2023-05-14T17:05:36.576Z,99915.03
2023-05-14T17:10:38.149Z,99927.84
2023-05-14T17:15:41.877Z,99924.94
2023-05-14T17:20:43.480Z,99923.66
2023-05-14T17:25:45.114Z,99922.59
2023-05-14T17:30:46.725Z,99924.25
2023-05-14T17:35:48.779Z,99921.38
2023-05-14T17:40:50.391Z,99916.91
2023-05-14T17:45:54.560Z,99930.59
2023-05-14T17:50:56.406Z,99923.94
2023-05-14T17:55:57.942Z,99927.59
2023-05-14T18:00:59.511Z,99936.84
2023-05-14T18:06:01.175Z,99932.72
2023-05-14T18:11:02.736Z,99942.13
2023-05-14T18:16:04.672Z,99940.22
2023-05-14T18:21:06.281Z,99939.47
2023-05-14T18:26:07.894Z,99948.03
2023-05-14T18:31:09.652Z,99953.28
2023-05-14T18:36:11.622Z,99962.69
2023-05-14T18:41:13.184Z,99979.56
2023-05-14T18:46:15.869Z,99972.34
2023-05-14T18:51:17.421Z,99967.88
2023-05-14T18:56:19.162Z,99979.13
2023-05-14T19:01:21.380Z,99974.56
2023-05-14T19:06:23.007Z,99982.06
2023-05-14T19:11:24.654Z,99990.41
2023-05-14T19:16:26.664Z,99987.34
2023-05-14T19:21:28.281Z,99976.66
2023-05-14T19:26:29.850Z,99985.81
2023-05-14T19:31:31.465Z,99992.38
2023-05-14T19:36:33.134Z,99995.34
2023-05-14T19:41:34.622Z,99999.16
2023-05-14T19:46:36.241Z,100006.00
2023-05-14T19:51:37.877Z,100004.78
2023-05-14T19:56:39.447Z,100013.13
2023-05-14T20:01:41.422Z,100015.22
2023-05-14T20:06:45.402Z,100013.75
2023-05-14T20:11:47.006Z,100013.13
2023-05-14T20:16:49.049Z,100012.97
2023-05-14T20:21:50.614Z,100004.16
2023-05-14T20:26:52.322Z,100008.38
2023-05-14T20:31:53.892Z,100002.69
2023-05-14T20:36:56.015Z,99996.38
2023-05-14T20:41:57.534Z,99983.72
2023-05-14T20:46:59.254Z,99982.09
2023-05-14T20:52:00.862Z,99975.75
2023-05-14T20:57:02.423Z,99976.59
2023-05-14T21:02:04.555Z,99983.03
2023-05-14T21:07:06.842Z,99988.38
2023-05-14T21:12:08.765Z,99989.13
2023-05-14T21:17:10.784Z,99980.41
2023-05-14T21:22:12.825Z,99981.84
2023-05-14T21:27:14.373Z,99974.81
2023-05-14T21:32:16.041Z,99985.03
2023-05-14T21:37:17.636Z,99994.69
2023-05-14T21:42:20.983Z,99985.88
2023-05-14T21:47:22.684Z,99980.38
2023-05-14T21:52:24.239Z,99981.59
2023-05-14T21:57:28.047Z,99976.34
2023-05-14T22:02:30.239Z,99984.94
2023-05-14T22:07:32.820Z,99992.28
2023-05-14T22:12:34.374Z,99987.69
2023-05-14T22:17:36.072Z,99990.91
2023-05-14T22:22:38.004Z,99988.16
2023-05-14T22:27:39.539Z,99986.25
2023-05-14T22:32:41.124Z,99984.59
2023-05-14T22:37:42.689Z,99986.81
2023-05-14T22:42:44.274Z,99980.88
2023-05-14T22:47:45.966Z,99987.31
2023-05-14T22:52:47.503Z,99974.66
2023-05-14T22:57:49.105Z,99969.91
2023-05-14T23:02:50.874Z,99970.34
2023-05-14T23:07:53.334Z,99968.44
2023-05-14T23:12:54.970Z,99959.97
2023-05-14T23:17:56.684Z,99967.78
2023-05-14T23:22:58.325Z,99957.53
2023-05-14T23:27:59.903Z,99955.63
2023-05-14T23:33:01.692Z,99953.66
2023-05-14T23:38:04.547Z,99954.13
2023-05-14T23:43:06.066Z,99949.47
2023-05-14T23:48:09.780Z,99951.22
2023-05-14T23:53:11.303Z,99943.56
2023-05-14T23:58:12.898Z,99938.19
